메인 페이지
METAR-TAF:

METAR-TAF

공항 :

Little Rock National Airport (Adams Field)

리틀록, 아칸소, 미국

위도: 34-43-36N, 경도: 092-14-10W, 고도: 79m

현재 날씨관측

예보는 1 시간 1분 전, 04:53시(UTC)에 발표되었습니다.
북북서5kt
온도 24°C
습도 78%
기압 1014 hPa
시정: 16.1km
고도 20000ft 상공 구름 조금
고도 25000ft 상공 구름 많음

METAR: KLIT 040453Z 33005KT 10SM FEW200 BKN250 24/20 A2994 RMK AO2 SLP137 T02390200

시각: 00:54 (05:54 UTC)

예보

예보는 34분 전, 05:20시(UTC)에 발표되었습니다.
예보 대상 시간: 04일 06시부터 05일 06시까지 (UTC)
여러 방향의 바람 3kt
시정: 10km
고도 15000ft 상공 구름 많음
04일 1100시부터 (UTC)
동북동3kt
시정: 10km
고도 15000ft 상공 구름 많음
04일 2100시부터 (UTC)
6kt
시정: 10km
고도 10000ft 상공 구름 많음
확률 30%
04일 21시부터 04일 24시까지 (UTC)
시정: 8.0km
고도 5000ft 상공 구름 많음, 적란운.
뇌우, 약한비

TAF: KLIT 040520Z 0406/0506 VRB03KT P6SM BKN150 FM041100 07003KT P6SM BKN150 FM042100 08006KT P6SM BKN100 PROB30 0421/0424 5SM -TSRA BKN050CB

4,000개 이상의 공항 관측 자료 및 예보 (METAR 및 TAF 보고).

지도상에서 검색 가능한 기상관측소가 노란 점과 빨간 점으로 표시되어 있습니다.

기상관측소 명을 보려면 표시 위로 마우스를 이동하세요.

날씨 관측과 예보를 보려면 클릭하세요.

지도 변경 : 확대하려면 엑스 표시가 있는 녹색 버튼, 축소하려면 빼기 표시가 있는 녹색 버튼, 다음 페이지의 지도를 보려면 녹색 화살표를 클릭하세요.


METAR-TAF: